sensor_id;sensor_type;location;lat;lon;timestamp;pressure;altitude;pressure_sealevel;temperature;humidity
62712;BME280;48772;55.586;37.730;2023-02-20T00:00:28;97261.63;;;-5.71;100.00
62712;BME280;48772;55.586;37.730;2023-02-20T00:02:55;97220.72;;;-5.97;100.00
62712;BME280;48772;55.586;37.730;2023-02-20T00:05:21;97258.78;;;-5.67;100.00
62712;BME280;48772;55.586;37.730;2023-02-20T00:07:47;97269.34;;;-5.70;100.00
62712;BME280;48772;55.586;37.730;2023-02-20T00:10:14;97260.97;;;-5.75;100.00
62712;BME280;48772;55.586;37.730;2023-02-20T00:12:40;97247.38;;;-5.80;100.00
62712;BME280;48772;55.586;37.730;2023-02-20T00:15:07;97269.91;;;-5.65;100.00
62712;BME280;48772;55.586;37.730;2023-02-20T00:17:33;97239.38;;;-5.91;100.00
62712;BME280;48772;55.586;37.730;2023-02-20T00:19:59;97209.59;;;-5.99;100.00
62712;BME280;48772;55.586;37.730;2023-02-20T00:22:26;97228.94;;;-5.89;100.00
62712;BME280;48772;55.586;37.730;2023-02-20T00:24:52;97264.47;;;-5.76;100.00
62712;BME280;48772;55.586;37.730;2023-02-20T00:27:18;97261.72;;;-5.73;100.00
62712;BME280;48772;55.586;37.730;2023-02-20T00:29:45;97242.41;;;-5.83;100.00
62712;BME280;48772;55.586;37.730;2023-02-20T00:32:14;97248.34;;;-5.81;100.00
62712;BME280;48772;55.586;37.730;2023-02-20T00:34:40;97243.06;;;-5.79;100.00
62712;BME280;48772;55.586;37.730;2023-02-20T00:37:06;97219.63;;;-5.93;100.00
62712;BME280;48772;55.586;37.730;2023-02-20T00:39:33;97243.06;;;-5.79;100.00
62712;BME280;48772;55.586;37.730;2023-02-20T00:42:00;97254.50;;;-5.68;100.00
62712;BME280;48772;55.586;37.730;2023-02-20T00:44:26;97258.03;;;-5.69;100.00
62712;BME280;48772;55.586;37.730;2023-02-20T00:46:52;97221.84;;;-5.86;100.00
62712;BME280;48772;55.586;37.730;2023-02-20T00:49:18;97236.69;;;-5.74;100.00
62712;BME280;48772;55.586;37.730;2023-02-20T00:51:45;97255.19;;;-5.64;100.00
62712;BME280;48772;55.586;37.730;2023-02-20T00:54:12;97173.44;;;-6.18;100.00
62712;BME280;48772;55.586;37.730;2023-02-20T00:56:38;97254.41;;;-5.66;100.00
62712;BME280;48772;55.586;37.730;2023-02-20T00:59:04;97249.06;;;-5.63;100.00
62712;BME280;48772;55.586;37.730;2023-02-20T01:01:30;97240.88;;;-5.71;100.00
62712;BME280;48772;55.586;37.730;2023-02-20T01:03:56;97214.22;;;-5.89;100.00
62712;BME280;48772;55.586;37.730;2023-02-20T01:06:22;97218.31;;;-5.85;100.00
62712;BME280;48772;55.586;37.730;2023-02-20T01:08:49;97237.28;;;-5.69;100.00
62712;BME280;48772;55.586;37.730;2023-02-20T01:11:15;97250.09;;;-5.66;100.00
62712;BME280;48772;55.586;37.730;2023-02-20T01:13:41;97242.53;;;-5.70;100.00
62712;BME280;48772;55.586;37.730;2023-02-20T01:16:07;97199.06;;;-5.96;100.00
62712;BME280;48772;55.586;37.730;2023-02-20T01:18:33;97229.63;;;-5.86;100.00
62712;BME280;48772;55.586;37.730;2023-02-20T01:20:59;97249.31;;;-5.68;100.00
62712;BME280;48772;55.586;37.730;2023-02-20T01:23:25;97232.66;;;-5.79;100.00
62712;BME280;48772;55.586;37.730;2023-02-20T01:25:52;97249.06;;;-5.79;100.00
62712;BME280;48772;55.586;37.730;2023-02-20T01:28:18;97239.81;;;-5.83;100.00
62712;BME280;48772;55.586;37.730;2023-02-20T01:30:44;97231.19;;;-5.83;100.00
62712;BME280;48772;55.586;37.730;2023-02-20T01:33:09;97242.59;;;-5.86;100.00
62712;BME280;48772;55.586;37.730;2023-02-20T01:35:35;97256.59;;;-5.74;100.00
62712;BME280;48772;55.586;37.730;2023-02-20T01:38:01;97265.16;;;-5.72;100.00
62712;BME280;48772;55.586;37.730;2023-02-20T01:40:32;97200.38;;;-6.05;100.00
62712;BME280;48772;55.586;37.730;2023-02-20T01:43:01;97249.06;;;-5.79;100.00
62712;BME280;48772;55.586;37.730;2023-02-20T01:45:34;97209.00;;;-6.04;100.00
62712;BME280;48772;55.586;37.730;2023-02-20T01:48:00;97250.25;;;-5.84;100.00
62712;BME280;48772;55.586;37.730;2023-02-20T01:50:38;97254.47;;;-5.82;100.00
62712;BME280;48772;55.586;37.730;2023-02-20T01:53:10;97245.06;;;-5.84;100.00
62712;BME280;48772;55.586;37.730;2023-02-20T01:55:42;97236.13;;;-5.94;100.00
62712;BME280;48772;55.586;37.730;2023-02-20T01:58:18;97222.63;;;-6.01;100.00
62712;BME280;48772;55.586;37.730;2023-02-20T02:00:45;97249.28;;;-5.82;100.00
62712;BME280;48772;55.586;37.730;2023-02-20T02:03:21;97267.13;;;-5.77;100.00
62712;BME280;48772;55.586;37.730;2023-02-20T02:05:52;97225.41;;;-6.04;100.00
62712;BME280;48772;55.586;37.730;2023-02-20T02:08:20;97265.56;;;-5.80;100.00
62712;BME280;48772;55.586;37.730;2023-02-20T02:10:56;97241.56;;;-5.99;100.00
62712;BME280;48772;55.586;37.730;2023-02-20T02:13:24;97266.97;;;-5.90;100.00
62712;BME280;48772;55.586;37.730;2023-02-20T02:28:57;97239.19;;;-6.19;100.00
62712;BME280;48772;55.586;37.730;2023-02-20T02:31:52;97249.38;;;-6.16;100.00
62712;BME280;48772;55.586;37.730;2023-02-20T02:37:27;97272.81;;;-6.02;100.00
62712;BME280;48772;55.586;37.730;2023-02-20T02:42:53;97178.91;;;-6.55;100.00
62712;BME280;48772;55.586;37.730;2023-02-20T02:45:38;97286.91;;;-5.90;100.00
62712;BME280;48772;55.586;37.730;2023-02-20T02:48:19;97268.13;;;-6.11;100.00
62712;BME280;48772;55.586;37.730;2023-02-20T02:50:48;97270.47;;;-6.06;100.00
62712;BME280;48772;55.586;37.730;2023-02-20T02:53:16;97293.19;;;-5.94;100.00
62712;BME280;48772;55.586;37.730;2023-02-20T02:55:43;97292.34;;;-5.95;100.00
62712;BME280;48772;55.586;37.730;2023-02-20T02:58:10;97280.69;;;-6.03;100.00
62712;BME280;48772;55.586;37.730;2023-02-20T03:00:57;97294.09;;;-5.95;100.00
62712;BME280;48772;55.586;37.730;2023-02-20T03:03:31;97296.94;;;-6.00;100.00
62712;BME280;48772;55.586;37.730;2023-02-20T03:06:20;97272.63;;;-6.14;100.00
62712;BME280;48772;55.586;37.730;2023-02-20T03:09:02;97273.31;;;-6.11;100.00
62712;BME280;48772;55.586;37.730;2023-02-20T03:11:32;97254.06;;;-6.22;100.00
62712;BME280;48772;55.586;37.730;2023-02-20T03:14:19;97281.47;;;-6.01;100.00
62712;BME280;48772;55.586;37.730;2023-02-20T03:19:57;97271.63;;;-6.12;100.00
62712;BME280;48772;55.586;37.730;2023-02-20T03:25:05;97299.63;;;-6.01;100.00
62712;BME280;48772;55.586;37.730;2023-02-20T03:28:14;97304.88;;;-6.03;100.00
62712;BME280;48772;55.586;37.730;2023-02-20T03:31:01;97309.47;;;-6.08;100.00
62712;BME280;48772;55.586;37.730;2023-02-20T03:33:36;97277.63;;;-6.27;100.00
62712;BME280;48772;55.586;37.730;2023-02-20T03:39:37;97279.47;;;-6.29;100.00
62712;BME280;48772;55.586;37.730;2023-02-20T03:42:24;97283.88;;;-6.31;100.00
62712;BME280;48772;55.586;37.730;2023-02-20T03:45:19;97290.50;;;-6.25;100.00
62712;BME280;48772;55.586;37.730;2023-02-20T03:47:51;97294.88;;;-6.26;100.00
62712;BME280;48772;55.586;37.730;2023-02-20T03:50:20;97313.59;;;-6.21;100.00
62712;BME280;48772;55.586;37.730;2023-02-20T03:53:05;97305.22;;;-6.26;100.00
62712;BME280;48772;55.586;37.730;2023-02-20T03:55:31;97292.81;;;-6.36;100.00
62712;BME280;48772;55.586;37.730;2023-02-20T03:58:04;97285.59;;;-6.47;100.00
62712;BME280;48772;55.586;37.730;2023-02-20T04:00:38;97298.13;;;-6.39;100.00
62712;BME280;48772;55.586;37.730;2023-02-20T04:03:24;97294.09;;;-6.45;100.00
62712;BME280;48772;55.586;37.730;2023-02-20T04:05:56;97283.00;;;-6.47;100.00
62712;BME280;48772;55.586;37.730;2023-02-20T04:08:36;97304.47;;;-6.45;100.00
62712;BME280;48772;55.586;37.730;2023-02-20T04:13:40;97247.66;;;-6.82;100.00
62712;BME280;48772;55.586;37.730;2023-02-20T04:16:07;97284.84;;;-6.66;100.00
62712;BME280;48772;55.586;37.730;2023-02-20T04:18:33;97250.19;;;-6.97;100.00
62712;BME280;48772;55.586;37.730;2023-02-20T04:21:06;97302.78;;;-6.63;100.00
62712;BME280;48772;55.586;37.730;2023-02-20T04:23:41;97323.16;;;-6.55;100.00
62712;BME280;48772;55.586;37.730;2023-02-20T04:26:15;97282.09;;;-6.80;100.00
62712;BME280;48772;55.586;37.730;2023-02-20T04:28:45;97314.47;;;-6.54;100.00
62712;BME280;48772;55.586;37.730;2023-02-20T04:31:15;97302.19;;;-6.68;100.00
62712;BME280;48772;55.586;37.730;2023-02-20T04:33:43;97255.56;;;-7.02;100.00
62712;BME280;48772;55.586;37.730;2023-02-20T04:36:15;97278.81;;;-6.83;100.00
62712;BME280;48772;55.586;37.730;2023-02-20T04:38:41;97311.28;;;-6.59;100.00
62712;BME280;48772;55.586;37.730;2023-02-20T04:41:12;97308.91;;;-6.64;100.00
62712;BME280;48772;55.586;37.730;2023-02-20T04:43:39;97319.13;;;-6.61;100.00
62712;BME280;48772;55.586;37.730;2023-02-20T04:46:05;97320.84;;;-6.61;100.00
62712;BME280;48772;55.586;37.730;2023-02-20T04:48:33;97306.31;;;-6.81;100.00
62712;BME280;48772;55.586;37.730;2023-02-20T04:51:00;97216.34;;;-7.29;100.00
62712;BME280;48772;55.586;37.730;2023-02-20T04:53:26;97308.53;;;-6.73;100.00
62712;BME280;48772;55.586;37.730;2023-02-20T04:55:52;97286.66;;;-6.85;100.00
62712;BME280;48772;55.586;37.730;2023-02-20T04:58:21;97250.41;;;-7.02;100.00
62712;BME280;48772;55.586;37.730;2023-02-20T05:00:51;97278.72;;;-6.82;100.00
62712;BME280;48772;55.586;37.730;2023-02-20T05:03:16;97306.00;;;-6.58;100.00
62712;BME280;48772;55.586;37.730;2023-02-20T05:05:42;97286.06;;;-6.73;100.00
62712;BME280;48772;55.586;37.730;2023-02-20T05:08:08;97325.53;;;-6.51;100.00
62712;BME280;48772;55.586;37.730;2023-02-20T05:10:35;97312.13;;;-6.59;100.00
62712;BME280;48772;55.586;37.730;2023-02-20T05:13:02;97284.00;;;-6.66;100.00
62712;BME280;48772;55.586;37.730;2023-02-20T05:15:29;97318.13;;;-6.41;100.00
62712;BME280;48772;55.586;37.730;2023-02-20T05:17:55;97275.44;;;-6.68;100.00
62712;BME280;48772;55.586;37.730;2023-02-20T05:20:22;97287.88;;;-6.58;100.00
62712;BME280;48772;55.586;37.730;2023-02-20T05:23:10;97322.25;;;-6.37;100.00
62712;BME280;48772;55.586;37.730;2023-02-20T05:25:36;97293.50;;;-6.50;100.00
62712;BME280;48772;55.586;37.730;2023-02-20T05:28:02;97323.19;;;-6.23;100.00
62712;BME280;48772;55.586;37.730;2023-02-20T05:30:28;97310.34;;;-6.41;100.00
62712;BME280;48772;55.586;37.730;2023-02-20T05:32:54;97336.78;;;-6.35;100.00
62712;BME280;48772;55.586;37.730;2023-02-20T05:35:20;97336.78;;;-6.18;100.00
62712;BME280;48772;55.586;37.730;2023-02-20T05:37:47;97295.94;;;-6.47;100.00
62712;BME280;48772;55.586;37.730;2023-02-20T05:40:13;97341.19;;;-6.20;100.00
62712;BME280;48772;55.586;37.730;2023-02-20T05:42:40;97322.59;;;-6.28;100.00
62712;BME280;48772;55.586;37.730;2023-02-20T05:45:06;97280.78;;;-6.54;100.00
62712;BME280;48772;55.586;37.730;2023-02-20T05:47:36;97243.16;;;-6.78;100.00
62712;BME280;48772;55.586;37.730;2023-02-20T05:50:02;97307.69;;;-6.40;100.00
62712;BME280;48772;55.586;37.730;2023-02-20T05:52:30;97347.00;;;-6.15;100.00
62712;BME280;48772;55.586;37.730;2023-02-20T05:54:56;97336.84;;;-6.19;100.00
62712;BME280;48772;55.586;37.730;2023-02-20T05:57:22;97316.91;;;-6.34;100.00
62712;BME280;48772;55.586;37.730;2023-02-20T05:59:48;97350.50;;;-6.16;100.00
62712;BME280;48772;55.586;37.730;2023-02-20T06:02:14;97360.13;;;-6.18;100.00
62712;BME280;48772;55.586;37.730;2023-02-20T06:04:40;97331.53;;;-6.33;100.00
62712;BME280;48772;55.586;37.730;2023-02-20T06:07:07;97308.59;;;-6.41;100.00
62712;BME280;48772;55.586;37.730;2023-02-20T06:09:34;97294.44;;;-6.51;100.00
62712;BME280;48772;55.586;37.730;2023-02-20T06:12:00;97359.78;;;-6.12;100.00
62712;BME280;48772;55.586;37.730;2023-02-20T06:14:27;97346.22;;;-6.17;100.00
62712;BME280;48772;55.586;37.730;2023-02-20T06:16:55;97340.31;;;-6.19;100.00
62712;BME280;48772;55.586;37.730;2023-02-20T06:19:24;97336.63;;;-6.15;100.00
62712;BME280;48772;55.586;37.730;2023-02-20T06:21:52;97338.22;;;-6.12;100.00
62712;BME280;48772;55.586;37.730;2023-02-20T06:24:19;97364.38;;;-6.00;100.00
62712;BME280;48772;55.586;37.730;2023-02-20T06:26:47;97331.72;;;-6.04;100.00
62712;BME280;48772;55.586;37.730;2023-02-20T06:29:15;97314.97;;;-6.14;100.00
62712;BME280;48772;55.586;37.730;2023-02-20T06:31:42;97372.44;;;-5.89;100.00
62712;BME280;48772;55.586;37.730;2023-02-20T06:34:15;97299.03;;;-6.23;100.00
62712;BME280;48772;55.586;37.730;2023-02-20T06:36:41;97366.91;;;-5.83;100.00
62712;BME280;48772;55.586;37.730;2023-02-20T06:39:09;97371.75;;;-5.77;100.00
62712;BME280;48772;55.586;37.730;2023-02-20T06:41:35;97339.84;;;-5.79;100.00
62712;BME280;48772;55.586;37.730;2023-02-20T06:44:01;97355.22;;;-5.59;100.00
62712;BME280;48772;55.586;37.730;2023-02-20T06:46:29;97361.50;;;-5.63;100.00
62712;BME280;48772;55.586;37.730;2023-02-20T06:48:56;97321.28;;;-5.87;100.00
62712;BME280;48772;55.586;37.730;2023-02-20T06:51:26;97363.09;;;-5.60;100.00
62712;BME280;48772;55.586;37.730;2023-02-20T06:53:52;97370.84;;;-5.43;100.00
62712;BME280;48772;55.586;37.730;2023-02-20T06:56:22;97317.78;;;-5.70;100.00
62712;BME280;48772;55.586;37.730;2023-02-20T06:58:50;97322.66;;;-5.64;100.00
62712;BME280;48772;55.586;37.730;2023-02-20T07:01:19;97371.91;;;-5.32;100.00
62712;BME280;48772;55.586;37.730;2023-02-20T07:03:46;97374.34;;;-5.29;100.00
62712;BME280;48772;55.586;37.730;2023-02-20T07:06:17;97301.78;;;-5.78;100.00
62712;BME280;48772;55.586;37.730;2023-02-20T07:08:44;97361.25;;;-5.43;100.00
62712;BME280;48772;55.586;37.730;2023-02-20T07:11:11;97369.47;;;-5.35;100.00
62712;BME280;48772;55.586;37.730;2023-02-20T07:18:07;97380.03;;;-5.22;100.00
62712;BME280;48772;55.586;37.730;2023-02-20T07:20:33;97382.56;;;-5.21;100.00
62712;BME280;48772;55.586;37.730;2023-02-20T07:22:59;97375.22;;;-5.13;100.00
62712;BME280;48772;55.586;37.730;2023-02-20T07:25:25;97321.00;;;-5.34;100.00
62712;BME280;48772;55.586;37.730;2023-02-20T07:27:50;97384.94;;;-4.85;100.00
62712;BME280;48772;55.586;37.730;2023-02-20T07:30:16;97384.66;;;-4.81;100.00
62712;BME280;48772;55.586;37.730;2023-02-20T07:32:42;97385.91;;;-4.72;100.00
62712;BME280;48772;55.586;37.730;2023-02-20T07:35:08;97377.34;;;-4.59;100.00
62712;BME280;48772;55.586;37.730;2023-02-20T07:37:34;97363.88;;;-4.81;100.00
62712;BME280;48772;55.586;37.730;2023-02-20T07:40:00;97385.44;;;-4.79;100.00
62712;BME280;48772;55.586;37.730;2023-02-20T07:42:25;97376.84;;;-4.65;100.00
62712;BME280;48772;55.586;37.730;2023-02-20T07:44:59;97378.88;;;-4.70;100.00
62712;BME280;48772;55.586;37.730;2023-02-20T07:47:25;97375.25;;;-4.68;100.00
62712;BME280;48772;55.586;37.730;2023-02-20T07:49:50;97383.69;;;-4.49;100.00
62712;BME280;48772;55.586;37.730;2023-02-20T07:52:16;97376.22;;;-4.55;100.00
62712;BME280;48772;55.586;37.730;2023-02-20T07:54:42;97370.13;;;-4.54;100.00
62712;BME280;48772;55.586;37.730;2023-02-20T07:57:08;97385.59;;;-4.37;100.00
62712;BME280;48772;55.586;37.730;2023-02-20T07:59:34;97369.13;;;-4.51;100.00
62712;BME280;48772;55.586;37.730;2023-02-20T08:02:00;97372.66;;;-4.38;100.00
62712;BME280;48772;55.586;37.730;2023-02-20T08:04:25;97380.22;;;-4.34;100.00
62712;BME280;48772;55.586;37.730;2023-02-20T08:06:52;97365.53;;;-4.35;100.00
62712;BME280;48772;55.586;37.730;2023-02-20T08:09:18;97397.72;;;-4.22;100.00
62712;BME280;48772;55.586;37.730;2023-02-20T08:11:43;97394.22;;;-4.07;100.00
62712;BME280;48772;55.586;37.730;2023-02-20T08:14:11;97395.53;;;-4.00;100.00
62712;BME280;48772;55.586;37.730;2023-02-20T08:16:37;97395.44;;;-3.98;100.00
62712;BME280;48772;55.586;37.730;2023-02-20T08:19:03;97381.53;;;-3.83;100.00
62712;BME280;48772;55.586;37.730;2023-02-20T08:21:29;97410.00;;;-3.80;100.00
62712;BME280;48772;55.586;37.730;2023-02-20T08:23:55;97383.63;;;-4.04;100.00
62712;BME280;48772;55.586;37.730;2023-02-20T08:26:21;97357.97;;;-4.24;100.00
62712;BME280;48772;55.586;37.730;2023-02-20T08:28:48;97395.63;;;-4.01;100.00
62712;BME280;48772;55.586;37.730;2023-02-20T08:31:15;97399.28;;;-3.90;100.00
62712;BME280;48772;55.586;37.730;2023-02-20T08:33:40;97400.31;;;-3.92;100.00
62712;BME280;48772;55.586;37.730;2023-02-20T08:36:06;97391.03;;;-3.82;100.00
62712;BME280;48772;55.586;37.730;2023-02-20T08:38:35;97400.91;;;-3.59;100.00
62712;BME280;48772;55.586;37.730;2023-02-20T08:41:12;97389.38;;;-3.55;100.00
62712;BME280;48772;55.586;37.730;2023-02-20T08:43:38;97410.88;;;-3.52;100.00
62712;BME280;48772;55.586;37.730;2023-02-20T08:46:05;97399.88;;;-3.57;100.00
62712;BME280;48772;55.586;37.730;2023-02-20T08:48:32;97419.03;;;-3.58;100.00
62712;BME280;48772;55.586;37.730;2023-02-20T08:50:58;97366.56;;;-3.94;100.00
62712;BME280;48772;55.586;37.730;2023-02-20T08:53:24;97385.53;;;-3.78;100.00
62712;BME280;48772;55.586;37.730;2023-02-20T08:55:50;97409.75;;;-3.62;100.00
62712;BME280;48772;55.586;37.730;2023-02-20T08:58:20;97409.56;;;-3.45;100.00
62712;BME280;48772;55.586;37.730;2023-02-20T09:00:48;97397.09;;;-3.39;100.00
62712;BME280;48772;55.586;37.730;2023-02-20T09:03:14;97393.03;;;-3.43;100.00
62712;BME280;48772;55.586;37.730;2023-02-20T09:05:41;97383.31;;;-3.42;100.00
62712;BME280;48772;55.586;37.730;2023-02-20T09:08:07;97398.78;;;-3.38;100.00
62712;BME280;48772;55.586;37.730;2023-02-20T09:10:33;97395.63;;;-3.29;100.00
62712;BME280;48772;55.586;37.730;2023-02-20T09:12:59;97390.41;;;-3.29;100.00
62712;BME280;48772;55.586;37.730;2023-02-20T09:15:24;97396.91;;;-3.22;100.00
62712;BME280;48772;55.586;37.730;2023-02-20T09:17:51;97395.22;;;-3.23;100.00
62712;BME280;48772;55.586;37.730;2023-02-20T09:20:20;97395.22;;;-3.09;100.00
62712;BME280;48772;55.586;37.730;2023-02-20T09:22:46;97406.75;;;-2.99;100.00
62712;BME280;48772;55.586;37.730;2023-02-20T09:25:13;97401.38;;;-3.10;100.00
62712;BME280;48772;55.586;37.730;2023-02-20T09:27:39;97420.59;;;-2.99;100.00
62712;BME280;48772;55.586;37.730;2023-02-20T09:30:08;97416.78;;;-2.93;100.00
62712;BME280;48772;55.586;37.730;2023-02-20T09:32:34;97415.63;;;-3.02;100.00
62712;BME280;48772;55.586;37.730;2023-02-20T09:35:00;97388.41;;;-2.98;100.00
62712;BME280;48772;55.586;37.730;2023-02-20T09:37:26;97398.34;;;-2.90;100.00
62712;BME280;48772;55.586;37.730;2023-02-20T09:39:51;97396.66;;;-2.77;100.00
62712;BME280;48772;55.586;37.730;2023-02-20T09:47:32;97404.06;;;-2.71;100.00
62712;BME280;48772;55.586;37.730;2023-02-20T09:50:08;97385.03;;;-2.86;100.00
62712;BME280;48772;55.586;37.730;2023-02-20T09:52:37;97406.31;;;-2.65;100.00
62712;BME280;48772;55.586;37.730;2023-02-20T09:55:13;97386.06;;;-2.88;100.00
62712;BME280;48772;55.586;37.730;2023-02-20T09:57:40;97409.88;;;-2.80;100.00
62712;BME280;48772;55.586;37.730;2023-02-20T10:00:20;97379.69;;;-3.11;100.00
62712;BME280;48772;55.586;37.730;2023-02-20T10:02:58;97397.53;;;-2.91;100.00
62712;BME280;48772;55.586;37.730;2023-02-20T10:05:27;97409.91;;;-2.94;100.00
62712;BME280;48772;55.586;37.730;2023-02-20T10:07:54;97402.94;;;-2.94;100.00
62712;BME280;48772;55.586;37.730;2023-02-20T10:10:23;97382.88;;;-2.79;100.00
62712;BME280;48772;55.586;37.730;2023-02-20T10:13:06;97403.63;;;-2.78;100.00
62712;BME280;48772;55.586;37.730;2023-02-20T10:26:54;97385.59;;;-2.54;100.00
62712;BME280;48772;55.586;37.730;2023-02-20T10:29:25;97391.06;;;-2.45;100.00
62712;BME280;48772;55.586;37.730;2023-02-20T10:32:02;97354.78;;;-2.62;100.00
62712;BME280;48772;55.586;37.730;2023-02-20T10:34:35;97358.47;;;-2.52;100.00
62712;BME280;48772;55.586;37.730;2023-02-20T10:37:13;97401.44;;;-2.31;100.00
62712;BME280;48772;55.586;37.730;2023-02-20T10:39:47;97387.31;;;-2.41;100.00
62712;BME280;48772;55.586;37.730;2023-02-20T10:42:36;97393.91;;;-2.35;100.00
62712;BME280;48772;55.586;37.730;2023-02-20T10:45:25;97396.13;;;-2.29;100.00
62712;BME280;48772;55.586;37.730;2023-02-20T10:48:05;97371.03;;;-2.44;100.00
62712;BME280;48772;55.586;37.730;2023-02-20T10:53:36;97397.59;;;-2.25;100.00
62712;BME280;48772;55.586;37.730;2023-02-20T10:56:13;97400.72;;;-2.20;100.00
62712;BME280;48772;55.586;37.730;2023-02-20T11:01:30;97361.63;;;-2.47;100.00
62712;BME280;48772;55.586;37.730;2023-02-20T11:04:02;97355.38;;;-2.44;100.00
62712;BME280;48772;55.586;37.730;2023-02-20T11:06:53;97372.31;;;-2.37;100.00
62712;BME280;48772;55.586;37.730;2023-02-20T11:09:20;97350.69;;;-2.66;100.00
62712;BME280;48772;55.586;37.730;2023-02-20T11:11:48;97392.84;;;-2.45;100.00
62712;BME280;48772;55.586;37.730;2023-02-20T11:14:23;97382.31;;;-2.70;100.00
62712;BME280;48772;55.586;37.730;2023-02-20T11:17:02;97377.38;;;-2.75;100.00
62712;BME280;48772;55.586;37.730;2023-02-20T11:19:47;97390.69;;;-2.79;100.00
62712;BME280;48772;55.586;37.730;2023-02-20T11:22:15;97353.69;;;-2.98;100.00
62712;BME280;48772;55.586;37.730;2023-02-20T11:24:42;97393.75;;;-2.73;100.00
62712;BME280;48772;55.586;37.730;2023-02-20T11:27:19;97383.53;;;-2.76;100.00
62712;BME280;48772;55.586;37.730;2023-02-20T11:29:50;97386.94;;;-2.75;100.00
62712;BME280;48772;55.586;37.730;2023-02-20T11:37:50;97379.19;;;-2.36;100.00
62712;BME280;48772;55.586;37.730;2023-02-20T11:40:33;97380.56;;;-2.31;100.00
62712;BME280;48772;55.586;37.730;2023-02-20T11:43:37;97388.53;;;-2.46;100.00
62712;BME280;48772;55.586;37.730;2023-02-20T11:46:21;97397.16;;;-2.58;100.00
62712;BME280;48772;55.586;37.730;2023-02-20T11:51:41;97364.31;;;-3.01;100.00
62712;BME280;48772;55.586;37.730;2023-02-20T11:54:13;97406.34;;;-2.79;100.00
62712;BME280;48772;55.586;37.730;2023-02-20T11:57:23;97420.50;;;-2.83;100.00
62712;BME280;48772;55.586;37.730;2023-02-20T12:00:07;97355.44;;;-3.39;100.00
62712;BME280;48772;55.586;37.730;2023-02-20T12:02:52;97419.97;;;-3.02;100.00
62712;BME280;48772;55.586;37.730;2023-02-20T12:05:20;97396.00;;;-3.21;100.00
62712;BME280;48772;55.586;37.730;2023-02-20T12:12:55;97353.19;;;-3.60;100.00
62712;BME280;48772;55.586;37.730;2023-02-20T12:15:26;97319.28;;;-3.86;100.00
62712;BME280;48772;55.586;37.730;2023-02-20T12:20:36;97364.34;;;-3.72;100.00
62712;BME280;48772;55.586;37.730;2023-02-20T12:26:17;97316.56;;;-3.99;100.00
62712;BME280;48772;55.586;37.730;2023-02-20T12:32:00;97412.72;;;-3.54;100.00
62712;BME280;48772;55.586;37.730;2023-02-20T12:37:39;97419.50;;;-3.51;100.00
62712;BME280;48772;55.586;37.730;2023-02-20T12:57:04;97421.81;;;-3.61;100.00
62712;BME280;48772;55.586;37.730;2023-02-20T13:04:56;97402.66;;;-3.88;100.00
62712;BME280;48772;55.586;37.730;2023-02-20T13:07:54;97417.72;;;-3.79;100.00
62712;BME280;48772;55.586;37.730;2023-02-20T13:10:24;97404.50;;;-3.90;100.00
62712;BME280;48772;55.586;37.730;2023-02-20T13:12:52;97428.03;;;-3.77;100.00
62712;BME280;48772;55.586;37.730;2023-02-20T13:18:16;97415.25;;;-3.96;100.00
62712;BME280;48772;55.586;37.730;2023-02-20T13:20:47;97423.81;;;-3.94;100.00
62712;BME280;48772;55.586;37.730;2023-02-20T13:25:45;97407.56;;;-3.97;100.00
62712;BME280;48772;55.586;37.730;2023-02-20T13:30:39;97412.00;;;-3.99;100.00
62712;BME280;48772;55.586;37.730;2023-02-20T13:33:21;97413.31;;;-3.92;100.00
62712;BME280;48772;55.586;37.730;2023-02-20T13:38:18;97422.66;;;-4.04;100.00
62712;BME280;48772;55.586;37.730;2023-02-20T13:53:49;97410.50;;;-4.33;100.00
62712;BME280;48772;55.586;37.730;2023-02-20T13:56:28;97360.41;;;-4.66;100.00
62712;BME280;48772;55.586;37.730;2023-02-20T13:58:57;97342.69;;;-4.89;100.00
62712;BME280;48772;55.586;37.730;2023-02-20T14:01:24;97394.97;;;-4.64;100.00
62712;BME280;48772;55.586;37.730;2023-02-20T14:04:02;97442.06;;;-4.39;100.00
62712;BME280;48772;55.586;37.730;2023-02-20T14:06:30;97405.34;;;-4.64;100.00
62712;BME280;48772;55.586;37.730;2023-02-20T14:09:12;97442.47;;;-4.46;100.00
62712;BME280;48772;55.586;37.730;2023-02-20T14:11:41;97447.28;;;-4.54;100.00
62712;BME280;48772;55.586;37.730;2023-02-20T14:14:30;97430.41;;;-4.63;100.00
62712;BME280;48772;55.586;37.730;2023-02-20T14:17:06;97412.22;;;-4.78;100.00
62712;BME280;48772;55.586;37.730;2023-02-20T14:19:41;97427.00;;;-4.79;100.00
62712;BME280;48772;55.586;37.730;2023-02-20T14:24:46;97446.09;;;-4.64;100.00
62712;BME280;48772;55.586;37.730;2023-02-20T14:27:30;97398.34;;;-4.93;100.00
62712;BME280;48772;55.586;37.730;2023-02-20T14:30:15;97431.69;;;-4.70;100.00
62712;BME280;48772;55.586;37.730;2023-02-20T14:32:52;97453.06;;;-4.65;100.00
62712;BME280;48772;55.586;37.730;2023-02-20T14:38:24;97453.25;;;-4.68;100.00
62712;BME280;48772;55.586;37.730;2023-02-20T14:40:55;97429.69;;;-4.80;100.00
62712;BME280;48772;55.586;37.730;2023-02-20T14:43:23;97445.59;;;-4.71;100.00
62712;BME280;48772;55.586;37.730;2023-02-20T14:46:04;97446.63;;;-4.73;100.00
62712;BME280;48772;55.586;37.730;2023-02-20T14:48:37;97421.63;;;-4.91;100.00
62712;BME280;48772;55.586;37.730;2023-02-20T14:51:16;97434.38;;;-4.87;100.00
62712;BME280;48772;55.586;37.730;2023-02-20T14:53:43;97419.03;;;-5.07;100.00
62712;BME280;48772;55.586;37.730;2023-02-20T14:56:14;97464.19;;;-4.78;100.00
62712;BME280;48772;55.586;37.730;2023-02-20T14:58:43;97400.25;;;-5.12;100.00
62712;BME280;48772;55.586;37.730;2023-02-20T15:01:37;97454.91;;;-4.82;100.00
62712;BME280;48772;55.586;37.730;2023-02-20T15:04:14;97412.63;;;-5.17;100.00
62712;BME280;48772;55.586;37.730;2023-02-20T15:06:43;97451.47;;;-4.98;100.00
62712;BME280;48772;55.586;37.730;2023-02-20T15:09:10;97458.84;;;-5.06;100.00
62712;BME280;48772;55.586;37.730;2023-02-20T15:11:46;97412.63;;;-5.32;100.00